KLWT/LWT METAR and TAF weather

Enter ICAO airport designator
Station Type Date Time Source
KLWT METAR 2021/08/05 03:54 UTC NOAA

KLWT 050354Z AUTO 09003KT 10SM CLR 23/06 A3010 RMK AO2 WSHFT 0253 LTG DSNT NW RAB0256E10 SLP147 P0000 T02280061


Station Type Date Time Source
KLWT Decoded METAR 2021/08/05 03:54 UTC NOAA

LEWISTOWN MUNICIPAL AIRPORT , MT, United States (KLWT) 47-03N 109-27W
Aug 04, 2021 - 11:54 PM EDT / 2021.08.05 0354 UTC
Wind: from the E (090 degrees) at 3 MPH (3 KT):0
Visibility: 10 mile(s):0
Sky conditions: clear
Weather: Lightning observed
Precipitation last hour: A trace
Temperature: 73.0 F (22.8 C)
Dew Point: 43.0 F (6.1 C)
Relative Humidity: 33%
Pressure (altimeter): 30.1 in. Hg (1019 hPa)
ob: KLWT 050354Z AUTO 09003KT 10SM CLR 23/06 A3010 RMK AO2 WSHFT 0253 LTG DSNT NW RAB0256E10 SLP147 P0000 T02280061
cycle: 4

Station Type Date Time Source
KLWT TAF 2021/08/05 02:21 UTC NOAA

TAF
AMD KLWT 050219Z 0502/0524 VRB05KT 6SM HZ VCTS FEW100CB SCT120
TEMPO 0503/0507 VRB10G20KT 4SM TS BKN080CB
FM050800 VRB06KT P6SM VCSH FEW100
FM051200 VRB05KT P6SM FEW100 FEW200

Example: see airport list